Charleston, South Carolina
Current Conditions -  °F | °C
As of 2:56 PM on Wednesday 28 Jan 2015 (Local Time) from KCHS Reporting Station
Clear Clear  
Wind Chill: 44°   Ceiling: Unl
Heat Index: 48°   Visibility: 10mi
Dew Point: 19°   Wind: 8mph
Humidity: 32%   Direction: 360°N
Pressure: 30.24"   Gusts: NA
Location:  32.78°N, 79.93°W
Report Text: KCHS 281956Z 36007KT 330V050 10SM CLR 09/M07 A3024 RMK AO2 SLP241 T00891072
Loading
Personal Weather Stations






























Interactive Weather Map New forecast layout! Learn more

10-Day Weather Forecast

Advertisements
Track Severe Weather on mobile